IDs: Format: Raw Decoded Include TAF

Data at: 1338 UTC 18 Mar 2018

KF46 181335Z AUTO 00000KT 7SM OVC008 16/16 A2988 RMK AO2 T01550155
KF46 181315Z AUTO 00000KT 7SM OVC008 15/15 A2987 RMK AO2 T01510151
KF46 181255Z AUTO 34003KT 7SM OVC008 15/15 A2985 RMK AO2 T01510151
KF46 181235Z AUTO 00000KT 10SM OVC008 15/15 A2986 RMK AO2 T01500150
KF46 181215Z AUTO 36004KT 10SM BKN010 OVC016 15/15 A2986 RMK AO2 T01470147
KF46 181155Z AUTO 11003KT 7SM SCT013 OVC018 15/15 A2986 RMK AO2 60007 70017 T01450145 10165 20135
KF46 181135Z AUTO 00000KT 7SM OVC013 15/15 A2986 RMK AO2 T01450145
KF46 181115Z AUTO 35003KT 5SM BR BKN013 OVC025 14/14 A2985 RMK AO2 T01380138
KF46 181055Z AUTO 00000KT 5SM BR BKN023 BKN029 14/14 A2985 RMK AO2 T01390139
KF46 181035Z AUTO 00000KT 5SM BR SCT029 SCT041 SCT060 14/14 A2985 RMK AO2 T01400140
KF46 181015Z AUTO 00000KT 7SM SCT060 14/14 A2984 RMK AO2 T01410141
KF46 180955Z AUTO 00000KT 5SM BR CLR 14/14 A2983 RMK AO2 T01390139
KF46 180935Z AUTO 00000KT 7SM CLR 14/14 A2984 RMK AO2 T01410141
KF46 180915Z AUTO 00000KT 4SM BR CLR 14/14 A2985 RMK AO2 T01410141
KF46 180855Z AUTO 00000KT 10SM SCT050 15/15 A2985 RMK AO2 60007 T01520152
KF46 180835Z AUTO 00000KT 10SM SCT050 15/15 A2986 RMK AO2 T01520152
KF46 180815Z AUTO 00000KT 10SM CLR 16/16 A2987 RMK AO2 T01550155
KF46 180755Z AUTO 03005KT 10SM CLR 16/16 A2987 RMK AO2 T01560156
KF46 180735Z AUTO 36004KT 10SM CLR 16/16 A2988 RMK AO2 T01590155
KF46 180715Z AUTO 13006G15KT 10SM SCT110 16/16 A2988 RMK AO2 T01600158
KF46 180655Z AUTO 12014G20KT 10SM -RA SCT090 BKN110 16/16 A2985 RMK AO2 P0007 T01600158
KF46 180635Z AUTO 14005KT 10SM -RA SCT060 BKN100 OVC120 16/16 A2990 RMK AO2 P0004 T01630156
KF46 180615Z AUTO 09008KT 10SM RA SCT050 BKN070 OVC100 16/16 A2989 RMK AO2 P0002 T01630157
KF46 180555Z AUTO 32008KT 10SM RA 17/16 A2992 RMK AO2 P0003 60008 T01660155 10194 20165 402600103
KF46 180535Z AUTO 08007KT 7SM -RA SCT048 BKN075 OVC100 17/16 A2990 RMK AO2 P0007 T01650158
KF46 180515Z AUTO 35004KT 10SM RA BKN085 OVC110 17/16 A2991 RMK AO2 P0001 T01660160
KF46 180455Z AUTO 35006KT 10SM SCT075 OVC110 17/16 A2990 RMK AO2 T01680160
KF46 180435Z AUTO 04008KT 10SM -RA OVC120 17/16 A2989 RMK AO2 T01660160
KF46 180415Z AUTO 08006KT 10SM -DZ SCT070 SCT085 OVC110 17/16 A2990 RMK AO2 T01670159
KF46 180355Z AUTO 09008KT 10SM -RA BKN085 OVC110 17/16 A2990 RMK AO2 P0004 T01670164
KF46 180335Z AUTO 07010KT 7SM -RA SCT055 BKN085 OVC110 17/17 A2990 RMK AO2 P0003 T01650165
KF46 180315Z AUTO 05005KT 7SM -RA OVC085 17/17 A2992 RMK AO2 P0001 T01650165
KF46 180255Z AUTO 33005KT RA 17/16 A2993 RMK AO2 T01660164
KF46 180235Z AUTO 35005KT 10SM -RA SCT070 OVC090 17/16 A2990 RMK AO2 P0002 T01710159
KF46 180215Z AUTO 03006KT 10SM -RA SCT050 SCT060 OVC090 18/15 A2989 RMK AO2 P0001 T01750148
KF46 180155Z AUTO 11004KT 10SM OVC100 18/14 A2988 RMK AO2 T01760144
KF46 180135Z AUTO 11004KT 10SM OVC100 17/15 A2987 RMK AO2 T01740147
KF46 180115Z AUTO 04003KT 10SM BKN110 18/15 A2987 RMK AO2 LTG DSNT E AND SE T01750145
KF46 180055Z AUTO 07005KT 10SM SCT120 18/14 A2986 RMK AO2 T01750140
KF46 180035Z AUTO 06004KT 10SM BKN110 17/14 A2988 RMK AO2 LTG DSNT SE T01740144
KF46 180015Z AUTO 26006KT 10SM RA OVC110 18/14 A2989 RMK AO2 LTG DSNT SE T01830136
KF46 172355Z AUTO 28007KT 10SM -VCTSRA OVC110 20/15 A2989 RMK AO2 LTG DSNT N AND S P0002 60002 T01960151 10260 20196
KF46 172335Z AUTO 30008KT 10SM -VCTSRA OVC100 21/16 A2988 RMK AO2 LTG DSNT SE AND S P0001 T02080163
KF46 172315Z AUTO 29003G14KT 10SM -RA SCT043 SCT055 OVC090 23/16 A2988 RMK AO2 LTG DSNT NW T02250161
KF46 172255Z AUTO 00000KT 10SM RA SCT043 SCT075 OVC100 23/17 A2988 RMK AO2 LTG DSNT SW T02250168
KF46 172235Z AUTO 00000KT 10SM SCT043 BKN095 OVC120 23/17 A2986 RMK AO2 LTG DSNT S AND SW T02310167
KF46 172215Z AUTO 26004KT 10SM BKN043 BKN110 24/17 A2985 RMK AO2 T02360167
KF46 172155Z AUTO 00000KT 10SM SCT041 25/16 A2984 RMK AO2 LTG DSNT W T02460164
KF46 172135Z AUTO 18004KT 10SM SCT039 25/16 A2982 RMK AO2 T02500162
KF46 172115Z AUTO 08004KT 10SM SCT039 25/16 A2983 RMK AO2 T02530163
KF46 172055Z AUTO 21003KT 10SM SCT034 SCT040 25/16 A2985 RMK AO2 T02520162
KF46 172035Z AUTO 00000KT 10SM BKN032 24/17 A2985 RMK AO2 T02440166
KF46 172015Z AUTO 24007KT 10SM BKN029 BKN034 25/17 A2987 RMK AO2 T02500171
KF46 171955Z AUTO 17006KT 10SM BKN025 BKN034 25/17 A2988 RMK AO2 T02500170
KF46 171935Z AUTO 17006G15KT 140V210 10SM OVC023 23/17 A2990 RMK AO2 T02340170
KF46 171915Z AUTO 21003KT 10SM OVC023 23/17 A2992 RMK AO2 T02250168
KF46 171855Z AUTO 14005KT 10SM OVC019 22/17 A2993 RMK AO2 T02190169
KF46 171835Z AUTO 16007KT 10SM OVC021 22/17 A2993 RMK AO2 T02160166
KF46 171815Z AUTO 17009G14KT 130V190 10SM OVC021 22/16 A2994 RMK AO2 T02180164
KF46 171755Z AUTO 18007KT 130V200 10SM SCT011 OVC021 21/16 A2995 RMK AO2 T02110159 10211 20107
KF46 171735Z AUTO 18004KT 10SM OVC011 20/15 A2996 RMK AO2 T01950151
KF46 171715Z AUTO 17003KT 10SM OVC013 19/14 A2996 RMK AO2 T01920142
KF46 171655Z AUTO 13003KT 10SM OVC015 19/10 A2997 RMK AO2 T01920102
KF46 171635Z AUTO 00000KT 10SM OVC015 20/08 A2997 RMK AO2 T01950080
KF46 171615Z AUTO 00000KT 10SM BKN015 OVC020 19/07 A2997 RMK AO2 T01870069
KF46 171555Z AUTO 36003KT 10SM BKN019 18/06 A2998 RMK AO2 T01820058
KF46 171535Z AUTO 34003KT 10SM SCT014 SCT019 19/05 A2997 RMK AO2 T01850053
KF46 171515Z AUTO 00000KT 10SM SCT014 17/04 A2998 RMK AO2 T01740039
KF46 171455Z AUTO 01005KT 10SM CLR 17/03 A2997 RMK AO2 T01680034
KF46 171435Z AUTO 03003KT 10SM CLR 16/03 A2997 RMK AO2 T01610026
KF46 171415Z AUTO 04005KT 10SM CLR 16/02 A2996 RMK AO2 T01550020
KF46 171355Z AUTO 03005KT 10SM CLR 16/03 A2994 RMK AO2 T01590026
KF46 171335Z AUTO 04004KT 10SM CLR 14/03 A2993 RMK AO2 T01400032
KF46 171315Z AUTO 02003KT 10SM CLR 13/03 A2993 RMK AO2 T01280029
KF46 171255Z AUTO 02004KT 10SM CLR 11/04 A2992 RMK AO2 T01080035
KF46 171235Z AUTO 00000KT 10SM CLR 12/03 A2991 RMK AO2 T01170026
KF46 171215Z AUTO 00000KT 10SM CLR 13/02 A2990 RMK AO2 T01280023
KF46 171155Z AUTO 00000KT 10SM CLR 13/02 A2990 RMK AO2 T01280024 10157 20103
KF46 171135Z AUTO 00000KT 10SM CLR 13/03 A2989 RMK AO2 T01290025
KF46 171115Z AUTO 00000KT 10SM CLR 13/03 A2988 RMK AO2 T01250027
KF46 171055Z AUTO 00000KT 10SM CLR 13/03 A2988 RMK AO2 T01330025
KF46 171035Z AUTO 10003KT 10SM CLR 12/03 A2988 RMK AO2 T01180030
KF46 171015Z AUTO 30004KT 10SM CLR 14/04 A2988 RMK AO2 T01350035
KF46 170955Z AUTO 33008KT 10SM CLR 13/02 A2987 RMK AO2 T01330022
KF46 170935Z AUTO 18007KT 10SM CLR 14/02 A2985 RMK AO2 T01380020
KF46 170915Z AUTO 18011KT 10SM CLR 13/02 A2985 RMK AO2 T01330023
KF46 170855Z AUTO 17009KT 10SM CLR 13/02 A2984 RMK AO2 T01310020
KF46 170840Z AUTO 17008KT 10SM CLR 12/02 A2984 RMK AO2 T01240018
KF46 170815Z AUTO 17008KT 10SM CLR 12/02 A2985 RMK AO2 T01230019
KF46 170755Z AUTO 17007KT 10SM CLR 13/02 A2986 RMK AO2 T01320016
KF46 170735Z AUTO 17006KT 10SM CLR 14/01 A2985 RMK AO2 T01430014
KF46 170715Z AUTO 17006KT 10SM CLR 14/02 A2986 RMK AO2 T01380017
KF46 170655Z AUTO 17005KT 10SM CLR 15/01 A2986 RMK AO2 T01480014
KF46 170635Z AUTO 17006KT 10SM CLR 16/02 A2986 RMK AO2 T01570015
KF46 170615Z AUTO 19006KT 10SM CLR 16/02 A2986 RMK AO2 T01560015
KF46 170555Z AUTO 18006KT 10SM CLR 16/02 A2986 RMK AO2 T01550017 10260 20154 402880154
KF46 170535Z AUTO 19006KT 10SM CLR 17/02 A2986 RMK AO2 T01650016
KF46 170515Z AUTO 19007KT 10SM CLR 18/01 A2986 RMK AO2 T01790013
KF46 170455Z AUTO 20007KT 10SM CLR 19/01 A2986 RMK AO2 T01920010
KF46 170435Z AUTO 19008KT 10SM CLR 18/02 A2986 RMK AO2 T01790015
KF46 170415Z AUTO 19007KT 10SM CLR 18/01 A2985 RMK AO2 T01780014
KF46 170355Z AUTO 18008KT 10SM CLR 19/01 A2985 RMK AO2 T01860012
KF46 170335Z AUTO 18008KT 10SM CLR 19/02 A2984 RMK AO2 T01850015
KF46 170315Z AUTO 19010KT 10SM CLR 19/02 A2984 RMK AO2 T01900015
KF46 170255Z AUTO 20011KT 10SM CLR 20/01 A2984 RMK AO2 T02020009
KF46 170235Z AUTO 20010KT 10SM CLR 21/01 A2983 RMK AO2 T02080006
KF46 170215Z AUTO 18008KT 10SM CLR 20/01 A2982 RMK AO2 T02010011
KF46 170155Z AUTO 18006KT 10SM CLR 20/01 A2982 RMK AO2 T02010012